sensor_id;sensor_type;location;lat;lon;timestamp;temperature;humidity
25550;DHT22;13444;50.562;7.262;2023-11-19T00:01:33;10.40;99.90
25550;DHT22;13444;50.562;7.262;2023-11-19T00:03:58;10.40;99.90
25550;DHT22;13444;50.562;7.262;2023-11-19T00:06:24;10.50;99.90
25550;DHT22;13444;50.562;7.262;2023-11-19T00:08:51;10.50;99.90
25550;DHT22;13444;50.562;7.262;2023-11-19T00:11:16;10.50;99.90
25550;DHT22;13444;50.562;7.262;2023-11-19T00:13:42;10.60;99.90
25550;DHT22;13444;50.562;7.262;2023-11-19T00:16:08;10.60;99.90
25550;DHT22;13444;50.562;7.262;2023-11-19T00:18:35;10.60;99.90
25550;DHT22;13444;50.562;7.262;2023-11-19T00:21:02;10.60;99.90
25550;DHT22;13444;50.562;7.262;2023-11-19T00:23:28;10.70;99.90
25550;DHT22;13444;50.562;7.262;2023-11-19T00:25:53;10.70;99.90
25550;DHT22;13444;50.562;7.262;2023-11-19T00:28:19;10.70;99.90
25550;DHT22;13444;50.562;7.262;2023-11-19T00:30:44;10.70;99.90
25550;DHT22;13444;50.562;7.262;2023-11-19T00:33:10;10.70;99.90
25550;DHT22;13444;50.562;7.262;2023-11-19T00:35:35;10.70;99.90
25550;DHT22;13444;50.562;7.262;2023-11-19T00:38:01;10.80;99.90
25550;DHT22;13444;50.562;7.262;2023-11-19T00:40:28;10.80;99.90
25550;DHT22;13444;50.562;7.262;2023-11-19T00:42:54;10.80;99.90
25550;DHT22;13444;50.562;7.262;2023-11-19T00:45:19;10.80;99.90
25550;DHT22;13444;50.562;7.262;2023-11-19T00:47:45;10.80;99.90
25550;DHT22;13444;50.562;7.262;2023-11-19T00:50:10;10.80;99.90
25550;DHT22;13444;50.562;7.262;2023-11-19T00:52:37;10.80;99.90
25550;DHT22;13444;50.562;7.262;2023-11-19T00:55:03;10.80;99.90
25550;DHT22;13444;50.562;7.262;2023-11-19T00:57:30;10.80;99.90
25550;DHT22;13444;50.562;7.262;2023-11-19T00:59:57;10.80;99.90
25550;DHT22;13444;50.562;7.262;2023-11-19T01:02:24;10.80;99.90
25550;DHT22;13444;50.562;7.262;2023-11-19T01:04:49;10.80;99.90
25550;DHT22;13444;50.562;7.262;2023-11-19T01:07:15;10.90;99.90
25550;DHT22;13444;50.562;7.262;2023-11-19T01:09:44;10.90;99.90
25550;DHT22;13444;50.562;7.262;2023-11-19T01:12:10;10.90;99.90
25550;DHT22;13444;50.562;7.262;2023-11-19T01:14:36;10.90;99.90
25550;DHT22;13444;50.562;7.262;2023-11-19T01:17:01;10.90;99.90
25550;DHT22;13444;50.562;7.262;2023-11-19T01:19:27;10.90;99.90
25550;DHT22;13444;50.562;7.262;2023-11-19T01:21:54;10.90;99.90
25550;DHT22;13444;50.562;7.262;2023-11-19T01:24:19;10.90;99.90
25550;DHT22;13444;50.562;7.262;2023-11-19T01:26:45;11.00;99.90
25550;DHT22;13444;50.562;7.262;2023-11-19T01:29:12;11.00;99.90
25550;DHT22;13444;50.562;7.262;2023-11-19T01:31:40;11.10;99.90
25550;DHT22;13444;50.562;7.262;2023-11-19T01:34:05;11.00;99.90
25550;DHT22;13444;50.562;7.262;2023-11-19T01:36:31;11.10;99.90
25550;DHT22;13444;50.562;7.262;2023-11-19T01:38:56;11.10;99.90
25550;DHT22;13444;50.562;7.262;2023-11-19T01:41:22;11.10;99.90
25550;DHT22;13444;50.562;7.262;2023-11-19T01:43:47;11.00;99.90
25550;DHT22;13444;50.562;7.262;2023-11-19T01:46:13;11.00;99.90
25550;DHT22;13444;50.562;7.262;2023-11-19T01:48:46;11.10;99.90
25550;DHT22;13444;50.562;7.262;2023-11-19T01:51:13;11.10;99.90
25550;DHT22;13444;50.562;7.262;2023-11-19T01:53:42;11.10;99.90
25550;DHT22;13444;50.562;7.262;2023-11-19T01:56:09;11.10;99.90
25550;DHT22;13444;50.562;7.262;2023-11-19T01:58:37;11.10;99.90
25550;DHT22;13444;50.562;7.262;2023-11-19T02:01:07;11.20;99.90
25550;DHT22;13444;50.562;7.262;2023-11-19T02:03:33;11.30;99.90
25550;DHT22;13444;50.562;7.262;2023-11-19T02:06:00;11.30;99.90
25550;DHT22;13444;50.562;7.262;2023-11-19T02:08:26;11.30;99.90
25550;DHT22;13444;50.562;7.262;2023-11-19T02:10:52;11.20;99.90
25550;DHT22;13444;50.562;7.262;2023-11-19T02:13:20;11.20;99.90
25550;DHT22;13444;50.562;7.262;2023-11-19T02:15:45;11.30;99.90
25550;DHT22;13444;50.562;7.262;2023-11-19T02:18:25;11.30;99.90
25550;DHT22;13444;50.562;7.262;2023-11-19T02:20:55;11.30;99.90
25550;DHT22;13444;50.562;7.262;2023-11-19T02:23:21;11.20;99.90
25550;DHT22;13444;50.562;7.262;2023-11-19T02:25:59;11.20;99.90
25550;DHT22;13444;50.562;7.262;2023-11-19T02:28:26;11.20;99.90
25550;DHT22;13444;50.562;7.262;2023-11-19T02:30:52;11.20;99.90
25550;DHT22;13444;50.562;7.262;2023-11-19T02:33:18;11.20;99.90
25550;DHT22;13444;50.562;7.262;2023-11-19T02:35:44;11.20;99.90
25550;DHT22;13444;50.562;7.262;2023-11-19T02:38:09;11.20;99.90
25550;DHT22;13444;50.562;7.262;2023-11-19T02:40:36;11.20;99.90
25550;DHT22;13444;50.562;7.262;2023-11-19T02:43:02;11.30;99.90
25550;DHT22;13444;50.562;7.262;2023-11-19T02:45:30;11.30;99.90
25550;DHT22;13444;50.562;7.262;2023-11-19T02:47:56;11.30;99.90
25550;DHT22;13444;50.562;7.262;2023-11-19T02:50:22;11.30;99.90
25550;DHT22;13444;50.562;7.262;2023-11-19T02:52:53;11.40;99.90
25550;DHT22;13444;50.562;7.262;2023-11-19T02:55:19;11.40;99.90
25550;DHT22;13444;50.562;7.262;2023-11-19T02:57:46;11.40;99.90
25550;DHT22;13444;50.562;7.262;2023-11-19T03:00:17;11.40;99.90
25550;DHT22;13444;50.562;7.262;2023-11-19T03:02:44;11.30;99.90
25550;DHT22;13444;50.562;7.262;2023-11-19T03:05:12;11.30;99.90
25550;DHT22;13444;50.562;7.262;2023-11-19T03:07:43;11.20;99.90
25550;DHT22;13444;50.562;7.262;2023-11-19T03:10:12;11.20;99.90
25550;DHT22;13444;50.562;7.262;2023-11-19T03:12:43;11.20;99.90
25550;DHT22;13444;50.562;7.262;2023-11-19T03:15:09;11.20;99.90
25550;DHT22;13444;50.562;7.262;2023-11-19T03:17:36;11.20;99.90
25550;DHT22;13444;50.562;7.262;2023-11-19T03:20:05;11.10;99.90
25550;DHT22;13444;50.562;7.262;2023-11-19T03:22:32;11.10;99.90
25550;DHT22;13444;50.562;7.262;2023-11-19T03:24:59;11.10;99.90
25550;DHT22;13444;50.562;7.262;2023-11-19T03:27:25;11.10;99.90
25550;DHT22;13444;50.562;7.262;2023-11-19T03:29:50;11.10;99.90
25550;DHT22;13444;50.562;7.262;2023-11-19T03:32:16;11.10;99.90
25550;DHT22;13444;50.562;7.262;2023-11-19T03:34:41;11.10;99.90
25550;DHT22;13444;50.562;7.262;2023-11-19T03:37:06;11.10;99.90
25550;DHT22;13444;50.562;7.262;2023-11-19T03:39:32;11.20;99.90
25550;DHT22;13444;50.562;7.262;2023-11-19T03:41:58;11.20;99.90
25550;DHT22;13444;50.562;7.262;2023-11-19T03:44:23;11.10;99.90
25550;DHT22;13444;50.562;7.262;2023-11-19T03:46:51;11.10;99.90
25550;DHT22;13444;50.562;7.262;2023-11-19T03:49:17;11.20;99.90
25550;DHT22;13444;50.562;7.262;2023-11-19T03:51:42;11.20;99.90
25550;DHT22;13444;50.562;7.262;2023-11-19T03:54:08;11.20;99.90
25550;DHT22;13444;50.562;7.262;2023-11-19T03:56:33;11.30;99.90
25550;DHT22;13444;50.562;7.262;2023-11-19T03:58:59;11.30;99.90
25550;DHT22;13444;50.562;7.262;2023-11-19T04:01:25;11.30;99.90
25550;DHT22;13444;50.562;7.262;2023-11-19T04:03:50;11.40;99.90
25550;DHT22;13444;50.562;7.262;2023-11-19T04:06:16;11.40;99.90
25550;DHT22;13444;50.562;7.262;2023-11-19T04:08:41;11.40;99.90
25550;DHT22;13444;50.562;7.262;2023-11-19T04:11:07;11.30;99.90
25550;DHT22;13444;50.562;7.262;2023-11-19T04:13:34;11.30;99.90
25550;DHT22;13444;50.562;7.262;2023-11-19T04:15:59;11.30;99.90
25550;DHT22;13444;50.562;7.262;2023-11-19T04:18:25;11.20;99.90
25550;DHT22;13444;50.562;7.262;2023-11-19T04:20:50;11.20;99.90
25550;DHT22;13444;50.562;7.262;2023-11-19T04:23:16;11.20;99.90
25550;DHT22;13444;50.562;7.262;2023-11-19T04:25:42;11.10;99.90
25550;DHT22;13444;50.562;7.262;2023-11-19T04:28:07;11.10;99.90
25550;DHT22;13444;50.562;7.262;2023-11-19T04:30:33;11.10;99.90
25550;DHT22;13444;50.562;7.262;2023-11-19T04:32:59;11.10;99.90
25550;DHT22;13444;50.562;7.262;2023-11-19T04:35:24;11.10;99.90
25550;DHT22;13444;50.562;7.262;2023-11-19T04:37:51;11.10;99.90
25550;DHT22;13444;50.562;7.262;2023-11-19T04:40:17;11.10;99.90
25550;DHT22;13444;50.562;7.262;2023-11-19T04:42:43;11.10;99.90
25550;DHT22;13444;50.562;7.262;2023-11-19T04:45:09;11.20;99.90
25550;DHT22;13444;50.562;7.262;2023-11-19T04:47:36;11.10;99.90
25550;DHT22;13444;50.562;7.262;2023-11-19T04:50:02;11.10;99.90
25550;DHT22;13444;50.562;7.262;2023-11-19T04:52:29;11.00;99.90
25550;DHT22;13444;50.562;7.262;2023-11-19T04:54:54;11.10;99.90
25550;DHT22;13444;50.562;7.262;2023-11-19T04:57:19;11.00;99.90
25550;DHT22;13444;50.562;7.262;2023-11-19T04:59:45;10.90;99.90
25550;DHT22;13444;50.562;7.262;2023-11-19T05:02:11;10.80;99.90
25550;DHT22;13444;50.562;7.262;2023-11-19T05:04:36;10.80;99.90
25550;DHT22;13444;50.562;7.262;2023-11-19T05:07:05;10.70;99.90
25550;DHT22;13444;50.562;7.262;2023-11-19T05:09:31;10.60;99.90
25550;DHT22;13444;50.562;7.262;2023-11-19T05:11:56;10.50;99.90
25550;DHT22;13444;50.562;7.262;2023-11-19T05:14:22;10.40;99.90
25550;DHT22;13444;50.562;7.262;2023-11-19T05:16:49;10.40;99.90
25550;DHT22;13444;50.562;7.262;2023-11-19T05:19:15;10.30;99.90
25550;DHT22;13444;50.562;7.262;2023-11-19T05:21:43;10.30;99.90
25550;DHT22;13444;50.562;7.262;2023-11-19T05:24:09;10.20;99.90
25550;DHT22;13444;50.562;7.262;2023-11-19T05:26:34;10.20;99.90
25550;DHT22;13444;50.562;7.262;2023-11-19T05:29:00;10.20;99.90
25550;DHT22;13444;50.562;7.262;2023-11-19T05:31:26;10.10;99.90
25550;DHT22;13444;50.562;7.262;2023-11-19T05:33:52;10.10;99.90
25550;DHT22;13444;50.562;7.262;2023-11-19T05:36:17;10.00;99.90
25550;DHT22;13444;50.562;7.262;2023-11-19T05:38:43;10.00;99.90
25550;DHT22;13444;50.562;7.262;2023-11-19T05:41:10;10.00;99.90
25550;DHT22;13444;50.562;7.262;2023-11-19T05:43:35;10.00;99.90
25550;DHT22;13444;50.562;7.262;2023-11-19T05:46:01;10.00;99.90
25550;DHT22;13444;50.562;7.262;2023-11-19T05:48:27;10.00;99.90
25550;DHT22;13444;50.562;7.262;2023-11-19T05:50:53;10.00;99.90
25550;DHT22;13444;50.562;7.262;2023-11-19T05:53:19;10.00;99.90
25550;DHT22;13444;50.562;7.262;2023-11-19T05:55:44;9.90;99.90
25550;DHT22;13444;50.562;7.262;2023-11-19T05:58:14;9.90;99.90
25550;DHT22;13444;50.562;7.262;2023-11-19T06:00:39;9.90;99.90
25550;DHT22;13444;50.562;7.262;2023-11-19T06:03:09;9.90;99.90
25550;DHT22;13444;50.562;7.262;2023-11-19T06:05:34;9.90;99.90
25550;DHT22;13444;50.562;7.262;2023-11-19T06:08:00;9.90;99.90
25550;DHT22;13444;50.562;7.262;2023-11-19T06:10:25;9.90;99.90
25550;DHT22;13444;50.562;7.262;2023-11-19T06:12:57;9.80;99.90
25550;DHT22;13444;50.562;7.262;2023-11-19T06:15:25;9.80;99.90
25550;DHT22;13444;50.562;7.262;2023-11-19T06:17:51;9.70;99.90
25550;DHT22;13444;50.562;7.262;2023-11-19T06:20:17;9.70;99.90
25550;DHT22;13444;50.562;7.262;2023-11-19T06:22:45;9.70;99.90
25550;DHT22;13444;50.562;7.262;2023-11-19T06:25:11;9.70;99.90
25550;DHT22;13444;50.562;7.262;2023-11-19T06:27:37;9.70;99.90
25550;DHT22;13444;50.562;7.262;2023-11-19T06:30:03;9.70;99.90
25550;DHT22;13444;50.562;7.262;2023-11-19T06:32:29;9.80;99.90
25550;DHT22;13444;50.562;7.262;2023-11-19T06:34:54;9.80;99.90
25550;DHT22;13444;50.562;7.262;2023-11-19T06:37:20;9.70;99.90
25550;DHT22;13444;50.562;7.262;2023-11-19T06:39:46;9.70;99.90
25550;DHT22;13444;50.562;7.262;2023-11-19T06:42:11;9.70;99.90
25550;DHT22;13444;50.562;7.262;2023-11-19T06:44:37;9.60;99.90
25550;DHT22;13444;50.562;7.262;2023-11-19T06:47:02;9.50;99.90
25550;DHT22;13444;50.562;7.262;2023-11-19T06:49:28;9.50;99.90
25550;DHT22;13444;50.562;7.262;2023-11-19T06:51:53;9.60;99.90
25550;DHT22;13444;50.562;7.262;2023-11-19T06:54:19;9.70;99.90
25550;DHT22;13444;50.562;7.262;2023-11-19T06:56:44;9.80;99.90
25550;DHT22;13444;50.562;7.262;2023-11-19T06:59:10;10.00;99.90
25550;DHT22;13444;50.562;7.262;2023-11-19T07:01:36;10.10;99.90
25550;DHT22;13444;50.562;7.262;2023-11-19T07:04:03;10.20;99.90
25550;DHT22;13444;50.562;7.262;2023-11-19T07:06:34;10.30;99.90
25550;DHT22;13444;50.562;7.262;2023-11-19T07:09:00;10.30;99.90
25550;DHT22;13444;50.562;7.262;2023-11-19T07:11:40;10.40;99.90
25550;DHT22;13444;50.562;7.262;2023-11-19T07:14:07;10.40;99.90
25550;DHT22;13444;50.562;7.262;2023-11-19T07:16:33;10.40;99.90
25550;DHT22;13444;50.562;7.262;2023-11-19T07:19:00;10.40;99.90
25550;DHT22;13444;50.562;7.262;2023-11-19T07:21:26;10.50;99.90
25550;DHT22;13444;50.562;7.262;2023-11-19T07:23:54;10.50;99.90
25550;DHT22;13444;50.562;7.262;2023-11-19T07:26:19;10.60;99.90
25550;DHT22;13444;50.562;7.262;2023-11-19T07:28:45;10.60;99.90
25550;DHT22;13444;50.562;7.262;2023-11-19T07:31:10;10.70;99.90
25550;DHT22;13444;50.562;7.262;2023-11-19T07:33:36;10.70;99.90
25550;DHT22;13444;50.562;7.262;2023-11-19T07:36:02;10.80;99.90
25550;DHT22;13444;50.562;7.262;2023-11-19T07:38:27;10.90;99.90
25550;DHT22;13444;50.562;7.262;2023-11-19T07:40:53;11.00;99.90
25550;DHT22;13444;50.562;7.262;2023-11-19T07:43:19;11.10;99.90
25550;DHT22;13444;50.562;7.262;2023-11-19T07:45:44;11.10;99.90
25550;DHT22;13444;50.562;7.262;2023-11-19T07:48:11;11.10;99.90
25550;DHT22;13444;50.562;7.262;2023-11-19T07:50:38;11.30;99.90
25550;DHT22;13444;50.562;7.262;2023-11-19T07:53:06;11.50;99.90
25550;DHT22;13444;50.562;7.262;2023-11-19T07:55:33;11.50;99.90
25550;DHT22;13444;50.562;7.262;2023-11-19T07:57:58;11.60;99.90
25550;DHT22;13444;50.562;7.262;2023-11-19T08:00:24;11.80;99.90
25550;DHT22;13444;50.562;7.262;2023-11-19T08:02:49;11.80;99.90
25550;DHT22;13444;50.562;7.262;2023-11-19T08:05:15;11.90;99.90
25550;DHT22;13444;50.562;7.262;2023-11-19T08:07:41;12.00;99.90
25550;DHT22;13444;50.562;7.262;2023-11-19T08:10:07;12.00;99.90
25550;DHT22;13444;50.562;7.262;2023-11-19T08:12:35;12.00;99.90
25550;DHT22;13444;50.562;7.262;2023-11-19T08:15:02;12.10;99.90
25550;DHT22;13444;50.562;7.262;2023-11-19T08:17:27;12.10;99.90
25550;DHT22;13444;50.562;7.262;2023-11-19T08:19:53;12.10;99.90
25550;DHT22;13444;50.562;7.262;2023-11-19T08:22:18;12.20;99.90
25550;DHT22;13444;50.562;7.262;2023-11-19T08:24:44;12.30;99.90
25550;DHT22;13444;50.562;7.262;2023-11-19T08:27:09;12.40;99.90
25550;DHT22;13444;50.562;7.262;2023-11-19T08:29:35;12.50;99.90
25550;DHT22;13444;50.562;7.262;2023-11-19T08:32:01;12.60;99.90
25550;DHT22;13444;50.562;7.262;2023-11-19T08:34:28;12.70;99.90
25550;DHT22;13444;50.562;7.262;2023-11-19T08:36:54;13.00;99.90
25550;DHT22;13444;50.562;7.262;2023-11-19T08:39:20;13.40;99.90
25550;DHT22;13444;50.562;7.262;2023-11-19T08:41:48;13.80;99.90
25550;DHT22;13444;50.562;7.262;2023-11-19T08:44:14;14.20;99.90
25550;DHT22;13444;50.562;7.262;2023-11-19T08:46:47;14.50;99.90
25550;DHT22;13444;50.562;7.262;2023-11-19T08:49:12;14.80;99.90
25550;DHT22;13444;50.562;7.262;2023-11-19T08:51:38;15.10;99.90
25550;DHT22;13444;50.562;7.262;2023-11-19T08:54:03;15.40;99.90
25550;DHT22;13444;50.562;7.262;2023-11-19T08:56:29;15.70;99.90
25550;DHT22;13444;50.562;7.262;2023-11-19T08:58:58;15.80;99.90
25550;DHT22;13444;50.562;7.262;2023-11-19T09:01:23;16.00;99.90
25550;DHT22;13444;50.562;7.262;2023-11-19T09:03:50;16.30;99.90
25550;DHT22;13444;50.562;7.262;2023-11-19T09:06:15;16.50;99.90
25550;DHT22;13444;50.562;7.262;2023-11-19T09:08:42;16.70;99.90
25550;DHT22;13444;50.562;7.262;2023-11-19T09:11:08;16.80;99.90
25550;DHT22;13444;50.562;7.262;2023-11-19T09:13:34;16.90;99.90
25550;DHT22;13444;50.562;7.262;2023-11-19T09:16:00;17.00;99.90
25550;DHT22;13444;50.562;7.262;2023-11-19T09:18:29;16.90;99.90
25550;DHT22;13444;50.562;7.262;2023-11-19T09:20:54;17.00;99.90
25550;DHT22;13444;50.562;7.262;2023-11-19T09:23:20;17.30;99.90
25550;DHT22;13444;50.562;7.262;2023-11-19T09:25:45;17.40;99.90
25550;DHT22;13444;50.562;7.262;2023-11-19T09:28:11;17.70;99.90
25550;DHT22;13444;50.562;7.262;2023-11-19T09:30:36;17.90;99.90
25550;DHT22;13444;50.562;7.262;2023-11-19T09:33:02;17.90;99.90
25550;DHT22;13444;50.562;7.262;2023-11-19T09:35:28;17.90;99.90
25550;DHT22;13444;50.562;7.262;2023-11-19T09:37:53;18.00;99.90
25550;DHT22;13444;50.562;7.262;2023-11-19T09:40:19;18.20;99.90
25550;DHT22;13444;50.562;7.262;2023-11-19T09:42:47;18.40;99.90
25550;DHT22;13444;50.562;7.262;2023-11-19T09:45:14;18.60;99.90
25550;DHT22;13444;50.562;7.262;2023-11-19T09:47:44;18.80;99.90
25550;DHT22;13444;50.562;7.262;2023-11-19T09:50:19;18.80;99.90
25550;DHT22;13444;50.562;7.262;2023-11-19T09:52:46;19.10;99.90
25550;DHT22;13444;50.562;7.262;2023-11-19T09:55:12;19.00;99.90
25550;DHT22;13444;50.562;7.262;2023-11-19T09:57:41;19.20;99.90
25550;DHT22;13444;50.562;7.262;2023-11-19T10:00:08;19.20;99.90
25550;DHT22;13444;50.562;7.262;2023-11-19T10:02:35;19.20;99.90
25550;DHT22;13444;50.562;7.262;2023-11-19T10:05:05;19.10;99.90
25550;DHT22;13444;50.562;7.262;2023-11-19T10:07:32;19.20;99.90
25550;DHT22;13444;50.562;7.262;2023-11-19T10:10:01;19.30;99.90
25550;DHT22;13444;50.562;7.262;2023-11-19T10:12:29;19.40;99.90
25550;DHT22;13444;50.562;7.262;2023-11-19T10:14:57;19.60;99.90
25550;DHT22;13444;50.562;7.262;2023-11-19T10:17:28;19.80;99.90
25550;DHT22;13444;50.562;7.262;2023-11-19T10:19:55;20.00;99.90
25550;DHT22;13444;50.562;7.262;2023-11-19T10:22:22;20.30;99.90
25550;DHT22;13444;50.562;7.262;2023-11-19T10:24:48;20.40;99.90
25550;DHT22;13444;50.562;7.262;2023-11-19T10:27:13;20.20;99.90
25550;DHT22;13444;50.562;7.262;2023-11-19T10:29:40;20.00;99.90
25550;DHT22;13444;50.562;7.262;2023-11-19T10:32:05;19.50;99.90
25550;DHT22;13444;50.562;7.262;2023-11-19T10:34:31;18.90;99.90
25550;DHT22;13444;50.562;7.262;2023-11-19T10:36:57;18.50;99.90
25550;DHT22;13444;50.562;7.262;2023-11-19T10:39:22;18.50;99.90
25550;DHT22;13444;50.562;7.262;2023-11-19T10:41:50;18.30;99.90
25550;DHT22;13444;50.562;7.262;2023-11-19T10:44:34;18.30;99.90
25550;DHT22;13444;50.562;7.262;2023-11-19T10:47:01;18.40;99.90
25550;DHT22;13444;50.562;7.262;2023-11-19T10:49:27;18.70;99.90
25550;DHT22;13444;50.562;7.262;2023-11-19T10:51:53;19.00;99.90
25550;DHT22;13444;50.562;7.262;2023-11-19T10:54:22;18.50;99.90
25550;DHT22;13444;50.562;7.262;2023-11-19T10:56:55;18.50;99.90
25550;DHT22;13444;50.562;7.262;2023-11-19T10:59:21;18.60;99.90
25550;DHT22;13444;50.562;7.262;2023-11-19T11:01:48;18.70;99.90
25550;DHT22;13444;50.562;7.262;2023-11-19T11:04:22;18.70;99.90
25550;DHT22;13444;50.562;7.262;2023-11-19T11:06:48;18.70;99.90
25550;DHT22;13444;50.562;7.262;2023-11-19T11:09:14;18.70;99.90
25550;DHT22;13444;50.562;7.262;2023-11-19T11:11:41;18.70;99.90
25550;DHT22;13444;50.562;7.262;2023-11-19T11:14:11;18.70;99.90
25550;DHT22;13444;50.562;7.262;2023-11-19T11:16:37;18.90;99.90
25550;DHT22;13444;50.562;7.262;2023-11-19T11:19:05;18.70;99.90
25550;DHT22;13444;50.562;7.262;2023-11-19T11:21:31;18.90;99.90
25550;DHT22;13444;50.562;7.262;2023-11-19T11:24:37;18.90;99.90
25550;DHT22;13444;50.562;7.262;2023-11-19T11:27:30;18.90;99.90
25550;DHT22;13444;50.562;7.262;2023-11-19T11:33:32;19.00;99.90
25550;DHT22;13444;50.562;7.262;2023-11-19T11:36:22;18.70;99.90
25550;DHT22;13444;50.562;7.262;2023-11-19T11:38:49;18.30;99.90
25550;DHT22;13444;50.562;7.262;2023-11-19T11:41:22;18.00;99.90
25550;DHT22;13444;50.562;7.262;2023-11-19T11:43:52;17.90;99.90
25550;DHT22;13444;50.562;7.262;2023-11-19T11:49:04;17.50;99.90
25550;DHT22;13444;50.562;7.262;2023-11-19T11:51:58;17.30;99.90
25550;DHT22;13444;50.562;7.262;2023-11-19T11:57:02;16.80;99.90
25550;DHT22;13444;50.562;7.262;2023-11-19T12:02:08;16.40;99.90
25550;DHT22;13444;50.562;7.262;2023-11-19T12:04:35;16.30;99.90
25550;DHT22;13444;50.562;7.262;2023-11-19T12:07:22;16.20;99.90
25550;DHT22;13444;50.562;7.262;2023-11-19T12:10:07;16.20;99.90
25550;DHT22;13444;50.562;7.262;2023-11-19T12:12:33;16.20;99.90
25550;DHT22;13444;50.562;7.262;2023-11-19T12:15:02;16.10;99.90
25550;DHT22;13444;50.562;7.262;2023-11-19T12:20:18;16.10;99.90
25550;DHT22;13444;50.562;7.262;2023-11-19T12:22:45;16.10;99.90
25550;DHT22;13444;50.562;7.262;2023-11-19T12:25:12;16.00;99.90
25550;DHT22;13444;50.562;7.262;2023-11-19T12:27:42;16.00;99.90
25550;DHT22;13444;50.562;7.262;2023-11-19T12:30:09;15.90;99.90
25550;DHT22;13444;50.562;7.262;2023-11-19T12:32:42;16.00;99.90
25550;DHT22;13444;50.562;7.262;2023-11-19T12:35:09;16.20;99.90
25550;DHT22;13444;50.562;7.262;2023-11-19T12:37:48;16.30;99.90
25550;DHT22;13444;50.562;7.262;2023-11-19T12:40:15;16.30;99.90
25550;DHT22;13444;50.562;7.262;2023-11-19T12:42:43;16.30;99.90
25550;DHT22;13444;50.562;7.262;2023-11-19T12:45:09;16.20;99.90
25550;DHT22;13444;50.562;7.262;2023-11-19T12:47:36;16.20;99.90
25550;DHT22;13444;50.562;7.262;2023-11-19T12:50:02;16.00;99.90
25550;DHT22;13444;50.562;7.262;2023-11-19T12:52:29;15.90;99.90
25550;DHT22;13444;50.562;7.262;2023-11-19T12:54:55;15.80;99.90
25550;DHT22;13444;50.562;7.262;2023-11-19T12:57:21;15.80;99.90
25550;DHT22;13444;50.562;7.262;2023-11-19T13:00:00;15.70;99.90
25550;DHT22;13444;50.562;7.262;2023-11-19T13:02:54;15.60;99.90
25550;DHT22;13444;50.562;7.262;2023-11-19T13:05:31;15.60;99.90
25550;DHT22;13444;50.562;7.262;2023-11-19T13:08:05;15.50;99.90
25550;DHT22;13444;50.562;7.262;2023-11-19T13:13:21;15.50;99.90
25550;DHT22;13444;50.562;7.262;2023-11-19T13:15:46;15.60;99.90
25550;DHT22;13444;50.562;7.262;2023-11-19T13:18:16;15.60;99.90
25550;DHT22;13444;50.562;7.262;2023-11-19T13:20:42;15.60;99.90
25550;DHT22;13444;50.562;7.262;2023-11-19T13:23:08;15.60;99.90
25550;DHT22;13444;50.562;7.262;2023-11-19T13:25:34;15.60;99.90
25550;DHT22;13444;50.562;7.262;2023-11-19T13:27:59;15.60;99.90
25550;DHT22;13444;50.562;7.262;2023-11-19T13:30:25;15.50;99.90
25550;DHT22;13444;50.562;7.262;2023-11-19T13:32:52;15.50;99.90
25550;DHT22;13444;50.562;7.262;2023-11-19T13:35:18;15.50;99.90
25550;DHT22;13444;50.562;7.262;2023-11-19T13:37:47;15.50;99.90
25550;DHT22;13444;50.562;7.262;2023-11-19T13:40:12;15.50;99.90
25550;DHT22;13444;50.562;7.262;2023-11-19T13:42:44;15.50;99.90
25550;DHT22;13444;50.562;7.262;2023-11-19T13:45:13;15.50;99.90
25550;DHT22;13444;50.562;7.262;2023-11-19T13:47:40;15.50;99.90
25550;DHT22;13444;50.562;7.262;2023-11-19T13:50:13;15.50;99.90
25550;DHT22;13444;50.562;7.262;2023-11-19T13:52:41;15.50;99.90
25550;DHT22;13444;50.562;7.262;2023-11-19T13:55:08;15.50;99.90
25550;DHT22;13444;50.562;7.262;2023-11-19T13:57:35;15.50;99.90
25550;DHT22;13444;50.562;7.262;2023-11-19T14:00:04;15.50;99.90
25550;DHT22;13444;50.562;7.262;2023-11-19T14:02:36;15.50;99.90
25550;DHT22;13444;50.562;7.262;2023-11-19T14:05:02;15.60;99.90
25550;DHT22;13444;50.562;7.262;2023-11-19T14:07:28;15.70;99.90
25550;DHT22;13444;50.562;7.262;2023-11-19T14:09:53;15.80;99.90
25550;DHT22;13444;50.562;7.262;2023-11-19T14:12:19;15.80;99.90
25550;DHT22;13444;50.562;7.262;2023-11-19T14:14:45;15.70;99.90
25550;DHT22;13444;50.562;7.262;2023-11-19T14:17:11;15.70;99.90
25550;DHT22;13444;50.562;7.262;2023-11-19T14:19:37;15.60;99.90
25550;DHT22;13444;50.562;7.262;2023-11-19T14:22:04;15.60;99.90
25550;DHT22;13444;50.562;7.262;2023-11-19T14:24:30;15.50;99.90
25550;DHT22;13444;50.562;7.262;2023-11-19T14:26:55;15.40;99.90
25550;DHT22;13444;50.562;7.262;2023-11-19T14:29:24;15.30;99.90
25550;DHT22;13444;50.562;7.262;2023-11-19T14:31:51;15.20;99.90
25550;DHT22;13444;50.562;7.262;2023-11-19T14:34:17;15.10;99.90
25550;DHT22;13444;50.562;7.262;2023-11-19T14:36:44;15.10;99.90
25550;DHT22;13444;50.562;7.262;2023-11-19T14:39:10;15.00;99.90
25550;DHT22;13444;50.562;7.262;2023-11-19T14:41:35;14.90;99.90
25550;DHT22;13444;50.562;7.262;2023-11-19T14:44:01;14.90;99.90
25550;DHT22;13444;50.562;7.262;2023-11-19T14:46:28;14.90;99.90
25550;DHT22;13444;50.562;7.262;2023-11-19T14:48:54;14.90;99.90
25550;DHT22;13444;50.562;7.262;2023-11-19T14:51:19;14.80;99.90
25550;DHT22;13444;50.562;7.262;2023-11-19T14:53:49;14.80;99.90
25550;DHT22;13444;50.562;7.262;2023-11-19T14:56:14;14.80;99.90
25550;DHT22;13444;50.562;7.262;2023-11-19T14:58:40;14.70;99.90
25550;DHT22;13444;50.562;7.262;2023-11-19T15:01:06;14.70;99.90
25550;DHT22;13444;50.562;7.262;2023-11-19T15:03:32;14.60;99.90
25550;DHT22;13444;50.562;7.262;2023-11-19T15:05:58;14.60;99.90
25550;DHT22;13444;50.562;7.262;2023-11-19T15:08:24;14.60;99.90
25550;DHT22;13444;50.562;7.262;2023-11-19T15:10:50;14.50;99.90
25550;DHT22;13444;50.562;7.262;2023-11-19T15:13:16;14.50;99.90
25550;DHT22;13444;50.562;7.262;2023-11-19T15:15:41;14.50;99.90
25550;DHT22;13444;50.562;7.262;2023-11-19T15:18:07;14.40;99.90
25550;DHT22;13444;50.562;7.262;2023-11-19T15:20:33;14.40;99.90
25550;DHT22;13444;50.562;7.262;2023-11-19T15:22:58;14.30;99.90
25550;DHT22;13444;50.562;7.262;2023-11-19T15:25:24;14.30;99.90
25550;DHT22;13444;50.562;7.262;2023-11-19T15:27:50;14.30;99.90
25550;DHT22;13444;50.562;7.262;2023-11-19T15:30:15;14.30;99.90
25550;DHT22;13444;50.562;7.262;2023-11-19T15:32:42;14.30;99.90
25550;DHT22;13444;50.562;7.262;2023-11-19T15:35:09;14.20;99.90
25550;DHT22;13444;50.562;7.262;2023-11-19T15:37:35;14.20;99.90
25550;DHT22;13444;50.562;7.262;2023-11-19T15:40:01;14.20;99.90
25550;DHT22;13444;50.562;7.262;2023-11-19T15:42:29;14.10;99.90
25550;DHT22;13444;50.562;7.262;2023-11-19T15:44:54;14.10;99.90
25550;DHT22;13444;50.562;7.262;2023-11-19T15:47:20;14.00;99.90
25550;DHT22;13444;50.562;7.262;2023-11-19T15:49:46;14.00;99.90